createdAt,value
2022-10-18T00:02:19.913Z,8.38
2022-10-18T00:07:21.624Z,8.48
2022-10-18T00:12:23.154Z,9.63
2022-10-18T00:17:24.718Z,8.88
2022-10-18T00:22:26.239Z,9.20
2022-10-18T00:27:28.007Z,8.95
2022-10-18T00:32:29.929Z,9.40
2022-10-18T00:37:31.817Z,10.32
2022-10-18T00:42:33.891Z,11.15
2022-10-18T00:47:35.654Z,10.02
2022-10-18T00:52:37.406Z,9.98
2022-10-18T00:57:39.157Z,11.20
2022-10-18T01:02:40.686Z,10.32
2022-10-18T01:07:42.246Z,10.70
2022-10-18T01:12:43.804Z,10.43
2022-10-18T01:17:45.537Z,10.32
2022-10-18T01:22:47.309Z,11.10
2022-10-18T01:27:49.041Z,11.02
2022-10-18T01:32:50.805Z,11.23
2022-10-18T01:37:52.330Z,11.02
2022-10-18T01:42:54.107Z,11.05
2022-10-18T01:47:55.751Z,11.30
2022-10-18T01:52:57.502Z,11.18
2022-10-18T01:57:59.272Z,11.95
2022-10-18T02:03:00.805Z,11.75
2022-10-18T02:08:19.082Z,11.10
2022-10-18T02:13:23.984Z,11.23
2022-10-18T02:18:25.503Z,11.20
2022-10-18T02:23:27.144Z,11.80
2022-10-18T02:28:28.894Z,11.05
2022-10-18T02:33:30.674Z,11.52
2022-10-18T02:38:32.456Z,11.13
2022-10-18T02:43:34.181Z,11.18
2022-10-18T02:48:35.917Z,11.85
2022-10-18T02:53:37.693Z,11.02
2022-10-18T02:58:39.251Z,12.38
2022-10-18T03:03:40.804Z,11.57
2022-10-18T03:08:42.378Z,12.13
2022-10-18T03:13:44.083Z,11.50
2022-10-18T03:18:45.825Z,11.13
2022-10-18T03:23:47.588Z,11.95
2022-10-18T03:28:49.446Z,11.25
2022-10-18T03:33:51.034Z,11.07
2022-10-18T03:38:52.864Z,11.45
2022-10-18T03:43:54.605Z,11.68
2022-10-18T03:48:56.356Z,13.32
2022-10-18T03:53:58.127Z,12.73
2022-10-18T03:58:59.674Z,12.77
2022-10-18T04:04:01.288Z,13.15
2022-10-18T04:09:04.280Z,12.90
2022-10-18T04:14:08.387Z,15.98
2022-10-18T04:19:09.940Z,22.17
2022-10-18T04:24:11.547Z,23.48
2022-10-18T04:29:13.334Z,20.23
2022-10-18T04:34:14.833Z,23.25
2022-10-18T04:39:16.505Z,21.02
2022-10-18T04:44:18.258Z,20.17
2022-10-18T04:49:19.995Z,21.73
2022-10-18T04:54:23.868Z,19.92
2022-10-18T04:59:28.227Z,23.25
2022-10-18T05:04:29.750Z,21.67
2022-10-18T05:09:31.413Z,19.70
2022-10-18T05:14:33.167Z,22.50
2022-10-18T05:19:34.684Z,20.05
2022-10-18T05:24:36.368Z,19.98
2022-10-18T05:29:37.918Z,21.13
2022-10-18T05:34:39.549Z,24.98
2022-10-18T05:39:41.309Z,19.77
2022-10-18T05:44:42.811Z,16.05
2022-10-18T05:49:44.327Z,17.30
2022-10-18T05:54:45.870Z,18.27
2022-10-18T05:59:47.483Z,19.13
2022-10-18T06:04:49.144Z,18.10
2022-10-18T06:09:50.714Z,19.23
2022-10-18T06:14:52.232Z,16.58
2022-10-18T06:19:53.784Z,14.48
2022-10-18T06:24:57.270Z,13.63
2022-10-18T06:29:59.084Z,13.93
2022-10-18T06:35:00.606Z,13.20
2022-10-18T06:40:02.371Z,13.90
2022-10-18T06:45:03.979Z,13.23
2022-10-18T06:50:05.647Z,12.98
2022-10-18T06:55:09.221Z,13.05
2022-10-18T07:00:10.975Z,12.75
2022-10-18T07:05:12.710Z,12.38
2022-10-18T07:10:14.274Z,12.75
2022-10-18T07:15:15.905Z,12.93
2022-10-18T07:20:17.644Z,13.13
2022-10-18T07:25:19.412Z,12.57
2022-10-18T07:30:20.949Z,12.52
2022-10-18T07:35:22.471Z,11.70
2022-10-18T07:40:24.147Z,11.45
2022-10-18T07:45:25.954Z,10.07
2022-10-18T07:50:27.643Z,11.67
2022-10-18T07:55:29.453Z,9.23
2022-10-18T08:00:31.152Z,8.35
2022-10-18T08:10:39.363Z,8.88
2022-10-18T08:15:41.115Z,8.32
2022-10-18T08:20:42.645Z,8.48
2022-10-18T08:25:44.319Z,8.57
2022-10-18T08:30:45.822Z,8.18
2022-10-18T08:35:47.410Z,8.27
2022-10-18T08:40:48.956Z,7.40
2022-10-18T08:45:50.512Z,7.75
2022-10-18T08:50:52.065Z,8.10
2022-10-18T08:55:53.759Z,7.75
2022-10-18T09:00:55.309Z,7.97
2022-10-18T09:05:56.969Z,7.80
2022-10-18T09:16:05.216Z,7.85
2022-10-18T09:21:07.061Z,7.43
2022-10-18T09:26:08.730Z,7.05
2022-10-18T09:31:10.464Z,7.65
2022-10-18T09:36:12.222Z,7.72
2022-10-18T09:41:13.746Z,7.80
2022-10-18T09:46:15.299Z,8.02
2022-10-18T09:51:16.872Z,8.02
2022-10-18T09:56:18.440Z,8.00
2022-10-18T10:01:20.185Z,8.10
2022-10-18T10:06:21.959Z,7.82
2022-10-18T10:11:23.695Z,8.43
2022-10-18T10:16:25.247Z,8.65
2022-10-18T10:21:26.778Z,8.40
2022-10-18T10:26:28.316Z,8.60
2022-10-18T10:31:30.066Z,8.00
2022-10-18T10:36:31.581Z,8.52
2022-10-18T10:41:33.729Z,8.35
2022-10-18T10:46:35.495Z,8.07
2022-10-18T10:51:37.079Z,8.02
2022-10-18T10:56:38.707Z,8.30
2022-10-18T11:01:40.293Z,7.85
2022-10-18T11:06:41.817Z,9.00
2022-10-18T11:11:43.408Z,8.85
2022-10-18T11:16:44.938Z,8.18
2022-10-18T11:21:46.649Z,8.20
2022-10-18T11:26:48.870Z,8.30
2022-10-18T11:31:55.170Z,7.80
2022-10-18T11:37:15.963Z,7.75
2022-10-18T11:42:18.424Z,8.02
2022-10-18T11:47:20.187Z,8.30
2022-10-18T11:52:21.739Z,8.77
2022-10-18T11:57:23.410Z,8.02
2022-10-18T12:02:25.060Z,7.75
2022-10-18T12:07:30.276Z,7.95
2022-10-18T12:12:34.387Z,8.73
2022-10-18T12:17:44.082Z,8.45
2022-10-18T12:22:49.419Z,7.88
2022-10-18T12:27:51.101Z,8.52
2022-10-18T12:33:03.518Z,9.00
2022-10-18T12:38:14.400Z,8.75
2022-10-18T12:43:16.139Z,9.02
2022-10-18T12:48:17.666Z,9.82
2022-10-18T12:53:19.344Z,10.00
2022-10-18T12:58:20.870Z,12.63
2022-10-18T13:03:22.557Z,11.80
2022-10-18T13:08:24.102Z,10.68
2022-10-18T13:13:39.273Z,9.13
2022-10-18T13:18:42.212Z,8.95
2022-10-18T13:23:43.965Z,9.13
2022-10-18T13:28:45.753Z,8.48
2022-10-18T13:33:47.474Z,9.15
2022-10-18T13:38:49.220Z,9.15
2022-10-18T13:43:52.527Z,9.67
2022-10-18T13:48:54.301Z,8.40
2022-10-18T13:53:55.868Z,9.73
2022-10-18T13:59:06.143Z,9.27
2022-10-18T14:04:15.806Z,8.68
2022-10-18T14:09:26.212Z,10.57
2022-10-18T14:14:39.115Z,11.13
2022-10-18T14:19:40.856Z,10.95
2022-10-18T14:24:42.421Z,9.68
2022-10-18T14:29:44.144Z,7.57
2022-10-18T14:34:45.853Z,7.18
2022-10-18T14:39:47.591Z,6.25
2022-10-18T14:44:54.258Z,5.00
2022-10-18T14:49:57.354Z,4.50
2022-10-18T14:54:59.041Z,3.90
2022-10-18T15:00:00.630Z,4.30
2022-10-18T15:05:02.203Z,4.38
2022-10-18T15:10:03.761Z,2.88
2022-10-18T15:15:05.511Z,2.70
2022-10-18T15:20:07.082Z,2.63
2022-10-18T15:25:08.699Z,2.10
2022-10-18T15:30:10.236Z,2.72
2022-10-18T15:35:11.775Z,3.50
2022-10-18T15:40:13.329Z,3.28
2022-10-18T15:45:15.064Z,2.60
2022-10-18T15:50:16.828Z,3.00
2022-10-18T15:55:18.513Z,2.83
2022-10-18T16:00:20.086Z,2.63
2022-10-18T16:05:21.802Z,3.00
2022-10-18T16:10:23.450Z,3.22
2022-10-18T16:15:24.968Z,3.67
2022-10-18T16:20:26.522Z,3.67
2022-10-18T16:25:28.131Z,3.10
2022-10-18T16:30:29.791Z,3.08
2022-10-18T16:35:31.374Z,2.60
2022-10-18T16:40:34.628Z,6.63
2022-10-18T16:45:38.423Z,10.65
2022-10-18T16:50:40.172Z,12.10
2022-10-18T16:55:41.777Z,8.68
2022-10-18T17:00:43.661Z,9.02
2022-10-18T17:05:45.308Z,5.63
2022-10-18T17:10:47.150Z,8.20
2022-10-18T17:15:48.874Z,18.90
2022-10-18T17:20:50.556Z,21.17
2022-10-18T17:26:05.523Z,14.65
2022-10-18T17:31:10.426Z,8.52
2022-10-18T17:36:12.218Z,7.30
2022-10-18T17:41:13.980Z,7.35
2022-10-18T17:46:15.807Z,7.00
2022-10-18T17:51:17.491Z,14.35
2022-10-18T17:56:19.233Z,17.95
2022-10-18T18:01:20.986Z,20.33
2022-10-18T18:06:22.563Z,11.45
2022-10-18T18:11:24.184Z,7.00
2022-10-18T18:16:25.867Z,7.45
2022-10-18T18:21:27.719Z,6.93
2022-10-18T18:26:29.301Z,7.60
2022-10-18T18:31:34.528Z,7.85
2022-10-18T18:36:40.604Z,7.47
2022-10-18T18:41:42.267Z,8.30
2022-10-18T18:46:43.892Z,12.02
2022-10-18T18:51:45.520Z,12.18
2022-10-18T18:56:47.140Z,13.23
2022-10-18T19:01:49.102Z,9.85
2022-10-18T19:06:50.833Z,9.00
2022-10-18T19:11:52.536Z,8.88
2022-10-18T19:16:54.176Z,9.32
2022-10-18T19:21:55.713Z,8.50
2022-10-18T19:26:57.287Z,7.90
2022-10-18T19:31:58.833Z,9.35
2022-10-18T19:37:00.629Z,9.23
2022-10-18T19:42:02.153Z,11.13
2022-10-18T19:47:03.840Z,29.02
2022-10-18T19:52:05.363Z,25.65
2022-10-18T19:57:06.934Z,15.07
2022-10-18T20:02:08.774Z,13.02
2022-10-18T20:07:10.300Z,12.52
2022-10-18T20:12:11.848Z,11.98
2022-10-18T20:17:13.431Z,12.98
2022-10-18T20:22:15.166Z,14.65
2022-10-18T20:27:16.964Z,16.85
2022-10-18T20:32:18.668Z,17.38
2022-10-18T20:37:20.203Z,16.77
2022-10-18T20:42:21.869Z,15.98
2022-10-18T20:47:23.619Z,15.60
2022-10-18T20:52:25.362Z,14.60
2022-10-18T20:57:26.927Z,16.38
2022-10-18T21:02:28.528Z,16.85
2022-10-18T21:07:30.672Z,16.92
2022-10-18T21:12:34.102Z,17.10
2022-10-18T21:17:36.670Z,16.38
2022-10-18T21:22:38.383Z,15.57
2022-10-18T21:27:40.185Z,14.25
2022-10-18T21:32:41.904Z,15.70
2022-10-18T21:37:43.436Z,14.10
2022-10-18T21:42:44.980Z,15.07
2022-10-18T21:47:46.652Z,14.95
2022-10-18T21:52:48.237Z,15.65
2022-10-18T21:57:49.761Z,15.27
2022-10-18T22:02:51.495Z,16.10
2022-10-18T22:07:53.276Z,15.75
2022-10-18T22:12:55.025Z,15.25
2022-10-18T22:17:56.806Z,21.55
2022-10-18T22:22:58.496Z,20.73
2022-10-18T22:28:00.267Z,19.88
2022-10-18T22:33:02.031Z,19.58
2022-10-18T22:38:03.807Z,23.13
2022-10-18T22:43:05.431Z,18.85
2022-10-18T22:48:06.983Z,13.10
2022-10-18T22:53:08.736Z,12.75
2022-10-18T22:58:10.486Z,9.80
2022-10-18T23:03:12.255Z,9.52
2022-10-18T23:08:13.782Z,9.27
2022-10-18T23:13:15.313Z,9.88
2022-10-18T23:18:16.880Z,9.18
2022-10-18T23:23:18.672Z,9.43
2022-10-18T23:28:20.389Z,9.30
2022-10-18T23:33:22.158Z,10.02
2022-10-18T23:38:23.900Z,9.38
2022-10-18T23:43:25.421Z,10.10
2022-10-18T23:48:27.092Z,9.15
2022-10-18T23:53:28.854Z,10.70
2022-10-18T23:58:30.620Z,10.20
